sensor_id;sensor_type;location;lat;lon;timestamp;P1;durP1;ratioP1;P2;durP2;ratioP2
76548;SDS011;65391;52.068;4.542;2023-02-22T00:00:29;22.8;;;19.8;;
76548;SDS011;65391;52.068;4.542;2023-02-22T00:02:55;22.8;;;19.8;;
76548;SDS011;65391;52.068;4.542;2023-02-22T00:05:19;21.5;;;18.6;;
76548;SDS011;65391;52.068;4.542;2023-02-22T00:07:45;21.5;;;18.6;;
76548;SDS011;65391;52.068;4.542;2023-02-22T00:10:09;21.5;;;18.6;;
76548;SDS011;65391;52.068;4.542;2023-02-22T00:12:34;21.5;;;18.6;;
76548;SDS011;65391;52.068;4.542;2023-02-22T00:14:59;24.5;;;21.1;;
76548;SDS011;65391;52.068;4.542;2023-02-22T00:17:24;24.5;;;21.1;;
76548;SDS011;65391;52.068;4.542;2023-02-22T00:19:49;24.5;;;21.1;;
76548;SDS011;65391;52.068;4.542;2023-02-22T00:22:14;24.5;;;21.1;;
76548;SDS011;65391;52.068;4.542;2023-02-22T00:24:39;24.4;;;20.3;;
76548;SDS011;65391;52.068;4.542;2023-02-22T00:27:04;24.4;;;20.3;;
76548;SDS011;65391;52.068;4.542;2023-02-22T00:29:29;24.4;;;20.3;;
76548;SDS011;65391;52.068;4.542;2023-02-22T00:31:54;24.4;;;20.3;;
76548;SDS011;65391;52.068;4.542;2023-02-22T00:34:19;24.9;;;20.7;;
76548;SDS011;65391;52.068;4.542;2023-02-22T00:36:44;24.9;;;20.7;;
76548;SDS011;65391;52.068;4.542;2023-02-22T00:39:09;24.9;;;20.7;;
76548;SDS011;65391;52.068;4.542;2023-02-22T00:41:34;24.9;;;20.7;;
76548;SDS011;65391;52.068;4.542;2023-02-22T00:43:59;21.8;;;18.2;;
76548;SDS011;65391;52.068;4.542;2023-02-22T00:46:24;21.8;;;18.2;;
76548;SDS011;65391;52.068;4.542;2023-02-22T00:48:49;21.8;;;18.2;;
76548;SDS011;65391;52.068;4.542;2023-02-22T00:51:14;21.8;;;18.2;;
76548;SDS011;65391;52.068;4.542;2023-02-22T00:53:39;20.4;;;18.1;;
76548;SDS011;65391;52.068;4.542;2023-02-22T00:56:04;20.4;;;18.1;;
76548;SDS011;65391;52.068;4.542;2023-02-22T00:58:29;20.4;;;18.1;;
76548;SDS011;65391;52.068;4.542;2023-02-22T01:00:54;20.4;;;18.1;;
76548;SDS011;65391;52.068;4.542;2023-02-22T01:03:19;24.9;;;17.5;;
76548;SDS011;65391;52.068;4.542;2023-02-22T01:05:44;24.9;;;17.5;;
76548;SDS011;65391;52.068;4.542;2023-02-22T01:08:10;24.9;;;17.5;;
76548;SDS011;65391;52.068;4.542;2023-02-22T01:10:34;24.9;;;17.5;;
76548;SDS011;65391;52.068;4.542;2023-02-22T01:12:59;24.9;;;17.5;;
76548;SDS011;65391;52.068;4.542;2023-02-22T01:15:25;20.8;;;18.6;;
76548;SDS011;65391;52.068;4.542;2023-02-22T01:17:50;20.8;;;18.6;;
76548;SDS011;65391;52.068;4.542;2023-02-22T01:20:14;20.8;;;18.6;;
76548;SDS011;65391;52.068;4.542;2023-02-22T01:22:39;20.8;;;18.6;;
76548;SDS011;65391;52.068;4.542;2023-02-22T01:25:04;21.5;;;19.6;;
76548;SDS011;65391;52.068;4.542;2023-02-22T01:27:29;21.5;;;19.6;;
76548;SDS011;65391;52.068;4.542;2023-02-22T01:29:54;21.5;;;19.6;;
76548;SDS011;65391;52.068;4.542;2023-02-22T01:32:19;21.5;;;19.6;;
76548;SDS011;65391;52.068;4.542;2023-02-22T01:34:44;22.6;;;19.5;;
76548;SDS011;65391;52.068;4.542;2023-02-22T01:37:09;22.6;;;19.5;;
76548;SDS011;65391;52.068;4.542;2023-02-22T01:39:34;22.6;;;19.5;;
76548;SDS011;65391;52.068;4.542;2023-02-22T01:41:59;22.6;;;19.5;;
76548;SDS011;65391;52.068;4.542;2023-02-22T01:44:27;22.7;;;19.9;;
76548;SDS011;65391;52.068;4.542;2023-02-22T01:46:49;22.7;;;19.9;;
76548;SDS011;65391;52.068;4.542;2023-02-22T01:49:14;22.7;;;19.9;;
76548;SDS011;65391;52.068;4.542;2023-02-22T01:51:40;22.7;;;19.9;;
76548;SDS011;65391;52.068;4.542;2023-02-22T01:54:06;20.6;;;17.8;;
76548;SDS011;65391;52.068;4.542;2023-02-22T01:56:30;20.6;;;17.8;;
76548;SDS011;65391;52.068;4.542;2023-02-22T01:58:56;20.6;;;17.8;;
76548;SDS011;65391;52.068;4.542;2023-02-22T02:01:21;20.6;;;17.8;;
76548;SDS011;65391;52.068;4.542;2023-02-22T02:03:44;21.6;;;19.2;;
76548;SDS011;65391;52.068;4.542;2023-02-22T02:06:12;21.6;;;19.2;;
76548;SDS011;65391;52.068;4.542;2023-02-22T02:08:37;21.6;;;19.2;;
76548;SDS011;65391;52.068;4.542;2023-02-22T02:10:59;21.6;;;19.2;;
76548;SDS011;65391;52.068;4.542;2023-02-22T02:13:24;23.8;;;20.9;;
76548;SDS011;65391;52.068;4.542;2023-02-22T02:15:49;23.8;;;20.9;;
76548;SDS011;65391;52.068;4.542;2023-02-22T02:18:14;23.8;;;20.9;;
76548;SDS011;65391;52.068;4.542;2023-02-22T02:20:43;23.8;;;20.9;;
76548;SDS011;65391;52.068;4.542;2023-02-22T02:23:10;23.8;;;20.9;;
76548;SDS011;65391;52.068;4.542;2023-02-22T02:25:56;25.2;;;23;;
76548;SDS011;65391;52.068;4.542;2023-02-22T02:28:04;25.2;;;23;;
76548;SDS011;65391;52.068;4.542;2023-02-22T02:30:33;25.2;;;23;;
76548;SDS011;65391;52.068;4.542;2023-02-22T02:32:50;25.2;;;23;;
76548;SDS011;65391;52.068;4.542;2023-02-22T02:35:11;26.8;;;22.6;;
76548;SDS011;65391;52.068;4.542;2023-02-22T02:37:38;26.8;;;22.6;;
76548;SDS011;65391;52.068;4.542;2023-02-22T02:40:04;26.8;;;22.6;;
76548;SDS011;65391;52.068;4.542;2023-02-22T02:42:28;26.8;;;22.6;;
76548;SDS011;65391;52.068;4.542;2023-02-22T02:44:52;24.3;;;22.5;;
76548;SDS011;65391;52.068;4.542;2023-02-22T02:47:16;24.3;;;22.5;;
76548;SDS011;65391;52.068;4.542;2023-02-22T02:49:42;24.3;;;22.5;;
76548;SDS011;65391;52.068;4.542;2023-02-22T02:52:04;24.3;;;22.5;;
76548;SDS011;65391;52.068;4.542;2023-02-22T02:54:29;27.7;;;24.3;;
76548;SDS011;65391;52.068;4.542;2023-02-22T02:56:55;27.7;;;24.3;;
76548;SDS011;65391;52.068;4.542;2023-02-22T02:59:24;27.7;;;24.3;;
76548;SDS011;65391;52.068;4.542;2023-02-22T03:01:54;27.7;;;24.3;;
76548;SDS011;65391;52.068;4.542;2023-02-22T03:04:17;24.5;;;20.3;;
76548;SDS011;65391;52.068;4.542;2023-02-22T03:06:46;24.5;;;20.3;;
76548;SDS011;65391;52.068;4.542;2023-02-22T03:09:02;24.5;;;20.3;;
76548;SDS011;65391;52.068;4.542;2023-02-22T03:11:27;24.5;;;20.3;;
76548;SDS011;65391;52.068;4.542;2023-02-22T03:13:52;24.2;;;20.9;;
76548;SDS011;65391;52.068;4.542;2023-02-22T03:16:15;24.2;;;20.9;;
76548;SDS011;65391;52.068;4.542;2023-02-22T03:18:44;24.2;;;20.9;;
76548;SDS011;65391;52.068;4.542;2023-02-22T03:21:08;24.2;;;20.9;;
76548;SDS011;65391;52.068;4.542;2023-02-22T03:23:31;26.1;;;21.8;;
76548;SDS011;65391;52.068;4.542;2023-02-22T03:25:56;26.1;;;21.8;;
76548;SDS011;65391;52.068;4.542;2023-02-22T03:28:20;26.1;;;21.8;;
76548;SDS011;65391;52.068;4.542;2023-02-22T03:30:46;26.1;;;21.8;;
76548;SDS011;65391;52.068;4.542;2023-02-22T03:33:11;26.1;;;21.8;;
76548;SDS011;65391;52.068;4.542;2023-02-22T03:35:35;26.2;;;21.4;;
76548;SDS011;65391;52.068;4.542;2023-02-22T03:38:01;26.2;;;21.4;;
76548;SDS011;65391;52.068;4.542;2023-02-22T03:40:28;26.2;;;21.4;;
76548;SDS011;65391;52.068;4.542;2023-02-22T03:42:50;26.2;;;21.4;;
76548;SDS011;65391;52.068;4.542;2023-02-22T03:45:14;22.4;;;19.7;;
76548;SDS011;65391;52.068;4.542;2023-02-22T03:47:40;22.4;;;19.7;;
76548;SDS011;65391;52.068;4.542;2023-02-22T03:50:06;22.4;;;19.7;;
76548;SDS011;65391;52.068;4.542;2023-02-22T03:52:29;22.4;;;19.7;;
76548;SDS011;65391;52.068;4.542;2023-02-22T03:54:54;22.9;;;20.7;;
76548;SDS011;65391;52.068;4.542;2023-02-22T03:57:21;22.9;;;20.7;;
76548;SDS011;65391;52.068;4.542;2023-02-22T03:59:44;22.9;;;20.7;;
76548;SDS011;65391;52.068;4.542;2023-02-22T04:02:09;22.9;;;20.7;;
76548;SDS011;65391;52.068;4.542;2023-02-22T04:04:34;28.4;;;21.7;;
76548;SDS011;65391;52.068;4.542;2023-02-22T04:06:59;28.4;;;21.7;;
76548;SDS011;65391;52.068;4.542;2023-02-22T04:09:24;28.4;;;21.7;;
76548;SDS011;65391;52.068;4.542;2023-02-22T04:11:49;28.4;;;21.7;;
76548;SDS011;65391;52.068;4.542;2023-02-22T04:14:14;23;;;17.9;;
76548;SDS011;65391;52.068;4.542;2023-02-22T04:16:39;23;;;17.9;;
76548;SDS011;65391;52.068;4.542;2023-02-22T04:19:04;23;;;17.9;;
76548;SDS011;65391;52.068;4.542;2023-02-22T04:21:29;23;;;17.9;;
76548;SDS011;65391;52.068;4.542;2023-02-22T04:23:54;36.4;;;21.7;;
76548;SDS011;65391;52.068;4.542;2023-02-22T04:26:19;36.4;;;21.7;;
76548;SDS011;65391;52.068;4.542;2023-02-22T04:28:44;36.4;;;21.7;;
76548;SDS011;65391;52.068;4.542;2023-02-22T04:31:09;36.4;;;21.7;;
76548;SDS011;65391;52.068;4.542;2023-02-22T04:33:34;33.6;;;18.3;;
76548;SDS011;65391;52.068;4.542;2023-02-22T04:35:59;33.6;;;18.3;;
76548;SDS011;65391;52.068;4.542;2023-02-22T04:38:24;33.6;;;18.3;;
76548;SDS011;65391;52.068;4.542;2023-02-22T04:40:49;33.6;;;18.3;;
76548;SDS011;65391;52.068;4.542;2023-02-22T04:43:14;33.6;;;18.3;;
76548;SDS011;65391;52.068;4.542;2023-02-22T04:45:39;28.3;;;19.8;;
76548;SDS011;65391;52.068;4.542;2023-02-22T04:48:04;28.3;;;19.8;;
76548;SDS011;65391;52.068;4.542;2023-02-22T04:50:29;28.3;;;19.8;;
76548;SDS011;65391;52.068;4.542;2023-02-22T04:52:54;28.3;;;19.8;;
76548;SDS011;65391;52.068;4.542;2023-02-22T04:55:19;53.8;;;19.4;;
76548;SDS011;65391;52.068;4.542;2023-02-22T04:57:44;53.8;;;19.4;;
76548;SDS011;65391;52.068;4.542;2023-02-22T05:00:14;53.8;;;19.4;;
76548;SDS011;65391;52.068;4.542;2023-02-22T05:02:34;53.8;;;19.4;;
76548;SDS011;65391;52.068;4.542;2023-02-22T05:04:59;56.3;;;18.2;;
76548;SDS011;65391;52.068;4.542;2023-02-22T05:07:24;56.3;;;18.2;;
76548;SDS011;65391;52.068;4.542;2023-02-22T05:09:49;56.3;;;18.2;;
76548;SDS011;65391;52.068;4.542;2023-02-22T05:12:14;56.3;;;18.2;;
76548;SDS011;65391;52.068;4.542;2023-02-22T05:14:39;41.9;;;15.4;;
76548;SDS011;65391;52.068;4.542;2023-02-22T05:17:04;41.9;;;15.4;;
76548;SDS011;65391;52.068;4.542;2023-02-22T05:19:29;41.9;;;15.4;;
76548;SDS011;65391;52.068;4.542;2023-02-22T05:21:54;41.9;;;15.4;;
76548;SDS011;65391;52.068;4.542;2023-02-22T05:24:19;66.7;;;16.6;;
76548;SDS011;65391;52.068;4.542;2023-02-22T05:26:44;66.7;;;16.6;;
76548;SDS011;65391;52.068;4.542;2023-02-22T05:29:09;66.7;;;16.6;;
76548;SDS011;65391;52.068;4.542;2023-02-22T05:31:34;66.7;;;16.6;;
76548;SDS011;65391;52.068;4.542;2023-02-22T05:33:59;43.4;;;13.3;;
76548;SDS011;65391;52.068;4.542;2023-02-22T05:36:24;43.4;;;13.3;;
76548;SDS011;65391;52.068;4.542;2023-02-22T05:38:49;43.4;;;13.3;;
76548;SDS011;65391;52.068;4.542;2023-02-22T05:41:14;43.4;;;13.3;;
76548;SDS011;65391;52.068;4.542;2023-02-22T05:43:39;20.4;;;9.6;;
76548;SDS011;65391;52.068;4.542;2023-02-22T05:46:04;20.4;;;9.6;;
76548;SDS011;65391;52.068;4.542;2023-02-22T05:48:29;20.4;;;9.6;;
76548;SDS011;65391;52.068;4.542;2023-02-22T05:50:54;20.4;;;9.6;;
76548;SDS011;65391;52.068;4.542;2023-02-22T05:53:19;20.4;;;9.6;;
76548;SDS011;65391;52.068;4.542;2023-02-22T05:55:44;34.2;;;11.6;;
76548;SDS011;65391;52.068;4.542;2023-02-22T05:58:09;34.2;;;11.6;;
76548;SDS011;65391;52.068;4.542;2023-02-22T06:00:34;34.2;;;11.6;;
76548;SDS011;65391;52.068;4.542;2023-02-22T06:03:00;34.2;;;11.6;;
76548;SDS011;65391;52.068;4.542;2023-02-22T06:05:24;27.6;;;12.6;;
76548;SDS011;65391;52.068;4.542;2023-02-22T06:07:49;27.6;;;12.6;;
76548;SDS011;65391;52.068;4.542;2023-02-22T06:10:14;27.6;;;12.6;;
76548;SDS011;65391;52.068;4.542;2023-02-22T06:12:39;27.6;;;12.6;;
76548;SDS011;65391;52.068;4.542;2023-02-22T06:15:05;21.7;;;11.2;;
76548;SDS011;65391;52.068;4.542;2023-02-22T06:17:29;21.7;;;11.2;;
76548;SDS011;65391;52.068;4.542;2023-02-22T06:19:54;21.7;;;11.2;;
76548;SDS011;65391;52.068;4.542;2023-02-22T06:22:19;21.7;;;11.2;;
76548;SDS011;65391;52.068;4.542;2023-02-22T06:24:44;30.3;;;11.6;;
76548;SDS011;65391;52.068;4.542;2023-02-22T06:27:09;30.3;;;11.6;;
76548;SDS011;65391;52.068;4.542;2023-02-22T06:29:34;30.3;;;11.6;;
76548;SDS011;65391;52.068;4.542;2023-02-22T06:31:59;30.3;;;11.6;;
76548;SDS011;65391;52.068;4.542;2023-02-22T06:34:24;26.9;;;11.6;;
76548;SDS011;65391;52.068;4.542;2023-02-22T06:36:49;26.9;;;11.6;;
76548;SDS011;65391;52.068;4.542;2023-02-22T06:39:15;26.9;;;11.6;;
76548;SDS011;65391;52.068;4.542;2023-02-22T06:41:39;26.9;;;11.6;;
76548;SDS011;65391;52.068;4.542;2023-02-22T06:44:04;25.3;;;12.3;;
76548;SDS011;65391;52.068;4.542;2023-02-22T06:46:29;25.3;;;12.3;;
76548;SDS011;65391;52.068;4.542;2023-02-22T06:48:54;25.3;;;12.3;;
76548;SDS011;65391;52.068;4.542;2023-02-22T06:51:19;25.3;;;12.3;;
76548;SDS011;65391;52.068;4.542;2023-02-22T06:53:44;14.7;;;10.4;;
76548;SDS011;65391;52.068;4.542;2023-02-22T06:56:09;14.7;;;10.4;;
76548;SDS011;65391;52.068;4.542;2023-02-22T06:58:34;14.7;;;10.4;;
76548;SDS011;65391;52.068;4.542;2023-02-22T07:00:59;14.7;;;10.4;;
76548;SDS011;65391;52.068;4.542;2023-02-22T07:03:24;14.7;;;10.4;;
76548;SDS011;65391;52.068;4.542;2023-02-22T07:05:49;17.5;;;11.7;;
76548;SDS011;65391;52.068;4.542;2023-02-22T07:08:14;17.5;;;11.7;;
76548;SDS011;65391;52.068;4.542;2023-02-22T07:10:39;17.5;;;11.7;;
76548;SDS011;65391;52.068;4.542;2023-02-22T07:13:05;17.5;;;11.7;;
76548;SDS011;65391;52.068;4.542;2023-02-22T07:15:31;21.6;;;9.8;;
76548;SDS011;65391;52.068;4.542;2023-02-22T07:17:54;21.6;;;9.8;;
76548;SDS011;65391;52.068;4.542;2023-02-22T07:20:20;21.6;;;9.8;;
76548;SDS011;65391;52.068;4.542;2023-02-22T07:22:44;21.6;;;9.8;;
76548;SDS011;65391;52.068;4.542;2023-02-22T07:25:09;18.2;;;10;;
76548;SDS011;65391;52.068;4.542;2023-02-22T07:27:34;18.2;;;10;;
76548;SDS011;65391;52.068;4.542;2023-02-22T07:29:59;18.2;;;10;;
76548;SDS011;65391;52.068;4.542;2023-02-22T07:32:24;18.2;;;10;;
76548;SDS011;65391;52.068;4.542;2023-02-22T07:34:49;18.5;;;10.4;;
76548;SDS011;65391;52.068;4.542;2023-02-22T07:37:14;18.5;;;10.4;;
76548;SDS011;65391;52.068;4.542;2023-02-22T07:39:39;18.5;;;10.4;;
76548;SDS011;65391;52.068;4.542;2023-02-22T07:42:04;18.5;;;10.4;;
76548;SDS011;65391;52.068;4.542;2023-02-22T07:44:29;17.6;;;9.4;;
76548;SDS011;65391;52.068;4.542;2023-02-22T07:46:54;17.6;;;9.4;;
76548;SDS011;65391;52.068;4.542;2023-02-22T07:49:19;17.6;;;9.4;;
76548;SDS011;65391;52.068;4.542;2023-02-22T07:51:44;17.6;;;9.4;;
76548;SDS011;65391;52.068;4.542;2023-02-22T07:54:09;18.8;;;10.8;;
76548;SDS011;65391;52.068;4.542;2023-02-22T07:56:35;18.8;;;10.8;;
76548;SDS011;65391;52.068;4.542;2023-02-22T07:58:59;18.8;;;10.8;;
76548;SDS011;65391;52.068;4.542;2023-02-22T08:01:25;18.8;;;10.8;;
76548;SDS011;65391;52.068;4.542;2023-02-22T08:03:49;17.7;;;9.4;;
76548;SDS011;65391;52.068;4.542;2023-02-22T08:06:14;17.7;;;9.4;;
76548;SDS011;65391;52.068;4.542;2023-02-22T08:08:39;17.7;;;9.4;;
76548;SDS011;65391;52.068;4.542;2023-02-22T08:11:04;17.7;;;9.4;;
76548;SDS011;65391;52.068;4.542;2023-02-22T08:13:29;17.7;;;9.4;;
76548;SDS011;65391;52.068;4.542;2023-02-22T08:15:54;18.7;;;10.5;;
76548;SDS011;65391;52.068;4.542;2023-02-22T08:18:20;18.7;;;10.5;;
76548;SDS011;65391;52.068;4.542;2023-02-22T08:20:46;18.7;;;10.5;;
76548;SDS011;65391;52.068;4.542;2023-02-22T08:23:11;18.7;;;10.5;;
76548;SDS011;65391;52.068;4.542;2023-02-22T08:25:34;17.9;;;9.7;;
76548;SDS011;65391;52.068;4.542;2023-02-22T08:28:00;17.9;;;9.7;;
76548;SDS011;65391;52.068;4.542;2023-02-22T08:30:24;17.9;;;9.7;;
76548;SDS011;65391;52.068;4.542;2023-02-22T08:32:49;17.9;;;9.7;;
76548;SDS011;65391;52.068;4.542;2023-02-22T08:35:15;19.5;;;11.3;;
76548;SDS011;65391;52.068;4.542;2023-02-22T08:37:41;19.5;;;11.3;;
76548;SDS011;65391;52.068;4.542;2023-02-22T08:40:05;19.5;;;11.3;;
76548;SDS011;65391;52.068;4.542;2023-02-22T08:42:29;19.5;;;11.3;;
76548;SDS011;65391;52.068;4.542;2023-02-22T08:44:54;19.9;;;11.7;;
76548;SDS011;65391;52.068;4.542;2023-02-22T08:47:19;19.9;;;11.7;;
76548;SDS011;65391;52.068;4.542;2023-02-22T08:49:44;19.9;;;11.7;;
76548;SDS011;65391;52.068;4.542;2023-02-22T08:52:09;19.9;;;11.7;;
76548;SDS011;65391;52.068;4.542;2023-02-22T08:54:34;19.8;;;11.5;;
76548;SDS011;65391;52.068;4.542;2023-02-22T08:56:59;19.8;;;11.5;;
76548;SDS011;65391;52.068;4.542;2023-02-22T08:59:24;19.8;;;11.5;;
76548;SDS011;65391;52.068;4.542;2023-02-22T09:01:49;19.8;;;11.5;;
76548;SDS011;65391;52.068;4.542;2023-02-22T09:04:14;22.2;;;13.8;;
76548;SDS011;65391;52.068;4.542;2023-02-22T09:06:40;22.2;;;13.8;;
76548;SDS011;65391;52.068;4.542;2023-02-22T09:09:04;22.2;;;13.8;;
76548;SDS011;65391;52.068;4.542;2023-02-22T09:11:29;22.2;;;13.8;;
76548;SDS011;65391;52.068;4.542;2023-02-22T09:13:54;21.4;;;12.9;;
76548;SDS011;65391;52.068;4.542;2023-02-22T09:16:19;21.4;;;12.9;;
76548;SDS011;65391;52.068;4.542;2023-02-22T09:18:44;21.4;;;12.9;;
76548;SDS011;65391;52.068;4.542;2023-02-22T09:21:10;21.4;;;12.9;;
76548;SDS011;65391;52.068;4.542;2023-02-22T09:23:34;21.4;;;12.9;;
76548;SDS011;65391;52.068;4.542;2023-02-22T09:25:59;22.7;;;13.6;;
76548;SDS011;65391;52.068;4.542;2023-02-22T09:28:24;22.7;;;13.6;;
76548;SDS011;65391;52.068;4.542;2023-02-22T09:30:49;22.7;;;13.6;;
76548;SDS011;65391;52.068;4.542;2023-02-22T09:33:15;22.7;;;13.6;;
76548;SDS011;65391;52.068;4.542;2023-02-22T09:35:40;23.7;;;14;;
76548;SDS011;65391;52.068;4.542;2023-02-22T09:38:04;23.7;;;14;;
76548;SDS011;65391;52.068;4.542;2023-02-22T09:40:30;23.7;;;14;;
76548;SDS011;65391;52.068;4.542;2023-02-22T09:43:01;23.7;;;14;;
76548;SDS011;65391;52.068;4.542;2023-02-22T09:45:21;23.8;;;14;;
76548;SDS011;65391;52.068;4.542;2023-02-22T09:47:46;23.8;;;14;;
76548;SDS011;65391;52.068;4.542;2023-02-22T09:50:11;23.8;;;14;;
76548;SDS011;65391;52.068;4.542;2023-02-22T09:52:36;23.8;;;14;;
76548;SDS011;65391;52.068;4.542;2023-02-22T09:55:06;22.6;;;12.8;;
76548;SDS011;65391;52.068;4.542;2023-02-22T09:57:27;22.6;;;12.8;;
76548;SDS011;65391;52.068;4.542;2023-02-22T09:59:54;22.6;;;12.8;;
76548;SDS011;65391;52.068;4.542;2023-02-22T10:02:20;22.6;;;12.8;;
76548;SDS011;65391;52.068;4.542;2023-02-22T10:04:41;22.5;;;12.4;;
76548;SDS011;65391;52.068;4.542;2023-02-22T10:07:09;22.5;;;12.4;;
76548;SDS011;65391;52.068;4.542;2023-02-22T10:09:30;22.5;;;12.4;;
76548;SDS011;65391;52.068;4.542;2023-02-22T10:11:57;22.5;;;12.4;;
76548;SDS011;65391;52.068;4.542;2023-02-22T10:14:29;23.3;;;13.3;;
76548;SDS011;65391;52.068;4.542;2023-02-22T10:16:47;23.3;;;13.3;;
76548;SDS011;65391;52.068;4.542;2023-02-22T10:19:16;23.3;;;13.3;;
76548;SDS011;65391;52.068;4.542;2023-02-22T10:21:43;23.3;;;13.3;;
76548;SDS011;65391;52.068;4.542;2023-02-22T10:24:03;22.9;;;12.9;;
76548;SDS011;65391;52.068;4.542;2023-02-22T10:26:26;22.9;;;12.9;;
76548;SDS011;65391;52.068;4.542;2023-02-22T10:28:52;22.9;;;12.9;;
76548;SDS011;65391;52.068;4.542;2023-02-22T10:31:19;22.9;;;12.9;;
76548;SDS011;65391;52.068;4.542;2023-02-22T10:33:41;22.9;;;12.9;;
76548;SDS011;65391;52.068;4.542;2023-02-22T10:36:05;23.7;;;13.6;;
76548;SDS011;65391;52.068;4.542;2023-02-22T10:38:31;23.7;;;13.6;;
76548;SDS011;65391;52.068;4.542;2023-02-22T10:40:55;23.7;;;13.6;;
76548;SDS011;65391;52.068;4.542;2023-02-22T10:43:19;23.7;;;13.6;;
76548;SDS011;65391;52.068;4.542;2023-02-22T10:45:44;23.7;;;13.4;;
76548;SDS011;65391;52.068;4.542;2023-02-22T10:48:10;23.7;;;13.4;;
76548;SDS011;65391;52.068;4.542;2023-02-22T10:50:36;23.7;;;13.4;;
76548;SDS011;65391;52.068;4.542;2023-02-22T10:52:59;23.7;;;13.4;;
76548;SDS011;65391;52.068;4.542;2023-02-22T10:55:24;23.7;;;13.2;;
76548;SDS011;65391;52.068;4.542;2023-02-22T10:57:50;23.7;;;13.2;;
76548;SDS011;65391;52.068;4.542;2023-02-22T11:00:17;23.7;;;13.2;;
76548;SDS011;65391;52.068;4.542;2023-02-22T11:02:40;23.7;;;13.2;;
76548;SDS011;65391;52.068;4.542;2023-02-22T11:05:04;24.5;;;13.5;;
76548;SDS011;65391;52.068;4.542;2023-02-22T11:07:30;24.5;;;13.5;;
76548;SDS011;65391;52.068;4.542;2023-02-22T11:09:56;24.5;;;13.5;;
76548;SDS011;65391;52.068;4.542;2023-02-22T11:12:24;24.5;;;13.5;;
76548;SDS011;65391;52.068;4.542;2023-02-22T11:14:44;26.3;;;14.9;;
76548;SDS011;65391;52.068;4.542;2023-02-22T11:17:12;26.3;;;14.9;;
76548;SDS011;65391;52.068;4.542;2023-02-22T11:19:34;26.3;;;14.9;;
76548;SDS011;65391;52.068;4.542;2023-02-22T11:22:09;26.3;;;14.9;;
76548;SDS011;65391;52.068;4.542;2023-02-22T11:24:25;26.9;;;15.3;;
76548;SDS011;65391;52.068;4.542;2023-02-22T11:26:51;26.9;;;15.3;;
76548;SDS011;65391;52.068;4.542;2023-02-22T11:29:18;26.9;;;15.3;;
76548;SDS011;65391;52.068;4.542;2023-02-22T11:31:40;26.9;;;15.3;;
76548;SDS011;65391;52.068;4.542;2023-02-22T11:34:04;26.2;;;14.6;;
76548;SDS011;65391;52.068;4.542;2023-02-22T11:36:33;26.2;;;14.6;;
76548;SDS011;65391;52.068;4.542;2023-02-22T11:38:55;26.2;;;14.6;;
76548;SDS011;65391;52.068;4.542;2023-02-22T11:41:20;26.2;;;14.6;;
76548;SDS011;65391;52.068;4.542;2023-02-22T11:43:45;26.2;;;14.6;;
76548;SDS011;65391;52.068;4.542;2023-02-22T11:46:11;26.2;;;14.7;;
76548;SDS011;65391;52.068;4.542;2023-02-22T11:48:36;26.2;;;14.7;;
76548;SDS011;65391;52.068;4.542;2023-02-22T11:51:07;26.2;;;14.7;;
76548;SDS011;65391;52.068;4.542;2023-02-22T11:53:28;26.2;;;14.7;;
76548;SDS011;65391;52.068;4.542;2023-02-22T11:55:55;26.5;;;15;;
76548;SDS011;65391;52.068;4.542;2023-02-22T11:58:25;26.5;;;15;;
76548;SDS011;65391;52.068;4.542;2023-02-22T12:00:45;26.5;;;15;;
76548;SDS011;65391;52.068;4.542;2023-02-22T12:03:22;26.5;;;15;;
76548;SDS011;65391;52.068;4.542;2023-02-22T12:05:38;27.3;;;15.3;;
76548;SDS011;65391;52.068;4.542;2023-02-22T12:08:02;27.3;;;15.3;;
76548;SDS011;65391;52.068;4.542;2023-02-22T12:10:25;27.3;;;15.3;;
76548;SDS011;65391;52.068;4.542;2023-02-22T12:12:54;27.3;;;15.3;;
76548;SDS011;65391;52.068;4.542;2023-02-22T12:15:12;27.1;;;15.1;;
76548;SDS011;65391;52.068;4.542;2023-02-22T12:17:41;27.1;;;15.1;;
76548;SDS011;65391;52.068;4.542;2023-02-22T12:20:00;27.1;;;15.1;;
76548;SDS011;65391;52.068;4.542;2023-02-22T12:22:26;27.1;;;15.1;;
76548;SDS011;65391;52.068;4.542;2023-02-22T12:24:53;26;;;15.2;;
76548;SDS011;65391;52.068;4.542;2023-02-22T12:27:17;26;;;15.2;;
76548;SDS011;65391;52.068;4.542;2023-02-22T12:29:42;26;;;15.2;;
76548;SDS011;65391;52.068;4.542;2023-02-22T12:32:06;26;;;15.2;;
76548;SDS011;65391;52.068;4.542;2023-02-22T12:34:32;27.8;;;15.6;;
76548;SDS011;65391;52.068;4.542;2023-02-22T12:36:57;27.8;;;15.6;;
76548;SDS011;65391;52.068;4.542;2023-02-22T12:39:23;27.8;;;15.6;;
76548;SDS011;65391;52.068;4.542;2023-02-22T12:41:46;27.8;;;15.6;;
76548;SDS011;65391;52.068;4.542;2023-02-22T12:44:13;25.1;;;14.7;;
76548;SDS011;65391;52.068;4.542;2023-02-22T12:46:36;25.1;;;14.7;;
76548;SDS011;65391;52.068;4.542;2023-02-22T12:49:03;25.1;;;14.7;;
76548;SDS011;65391;52.068;4.542;2023-02-22T12:51:27;25.1;;;14.7;;
76548;SDS011;65391;52.068;4.542;2023-02-22T12:53:54;25.1;;;14.7;;
76548;SDS011;65391;52.068;4.542;2023-02-22T12:56:18;26.7;;;15.4;;
76548;SDS011;65391;52.068;4.542;2023-02-22T12:58:44;26.7;;;15.4;;
76548;SDS011;65391;52.068;4.542;2023-02-22T13:01:06;26.7;;;15.4;;
76548;SDS011;65391;52.068;4.542;2023-02-22T13:03:34;26.7;;;15.4;;
76548;SDS011;65391;52.068;4.542;2023-02-22T13:05:58;27.4;;;15.8;;
76548;SDS011;65391;52.068;4.542;2023-02-22T13:08:23;27.4;;;15.8;;
76548;SDS011;65391;52.068;4.542;2023-02-22T13:10:55;27.4;;;15.8;;
76548;SDS011;65391;52.068;4.542;2023-02-22T13:13:13;27.4;;;15.8;;
76548;SDS011;65391;52.068;4.542;2023-02-22T13:15:39;27.5;;;17.4;;
76548;SDS011;65391;52.068;4.542;2023-02-22T13:18:02;27.5;;;17.4;;
76548;SDS011;65391;52.068;4.542;2023-02-22T13:20:26;27.5;;;17.4;;
76548;SDS011;65391;52.068;4.542;2023-02-22T13:22:51;27.5;;;17.4;;
76548;SDS011;65391;52.068;4.542;2023-02-22T13:25:16;29.1;;;17.9;;
76548;SDS011;65391;52.068;4.542;2023-02-22T13:27:42;29.1;;;17.9;;
76548;SDS011;65391;52.068;4.542;2023-02-22T13:30:05;29.1;;;17.9;;
76548;SDS011;65391;52.068;4.542;2023-02-22T13:32:37;29.1;;;17.9;;
76548;SDS011;65391;52.068;4.542;2023-02-22T13:35:00;30.7;;;18.4;;
76548;SDS011;65391;52.068;4.542;2023-02-22T13:37:28;30.7;;;18.4;;
76548;SDS011;65391;52.068;4.542;2023-02-22T13:39:53;30.7;;;18.4;;
76548;SDS011;65391;52.068;4.542;2023-02-22T13:42:20;30.7;;;18.4;;
76548;SDS011;65391;52.068;4.542;2023-02-22T13:44:45;31.5;;;19.5;;
76548;SDS011;65391;52.068;4.542;2023-02-22T13:47:15;31.5;;;19.5;;
76548;SDS011;65391;52.068;4.542;2023-02-22T13:49:39;31.5;;;19.5;;
76548;SDS011;65391;52.068;4.542;2023-02-22T13:51:50;31.5;;;19.5;;
76548;SDS011;65391;52.068;4.542;2023-02-22T13:54:18;31;;;19.2;;
76548;SDS011;65391;52.068;4.542;2023-02-22T13:56:41;31;;;19.2;;
76548;SDS011;65391;52.068;4.542;2023-02-22T13:59:05;31;;;19.2;;
76548;SDS011;65391;52.068;4.542;2023-02-22T14:01:39;31;;;19.2;;
76548;SDS011;65391;52.068;4.542;2023-02-22T14:04:13;31;;;19.2;;
76548;SDS011;65391;52.068;4.542;2023-02-22T14:06:35;31.1;;;19.1;;
76548;SDS011;65391;52.068;4.542;2023-02-22T14:08:46;31.1;;;19.1;;
76548;SDS011;65391;52.068;4.542;2023-02-22T14:11:41;31.1;;;19.1;;
76548;SDS011;65391;52.068;4.542;2023-02-22T14:14:08;31.1;;;19.1;;
76548;SDS011;65391;52.068;4.542;2023-02-22T14:16:17;30;;;18.4;;
76548;SDS011;65391;52.068;4.542;2023-02-22T14:18:25;30;;;18.4;;
76548;SDS011;65391;52.068;4.542;2023-02-22T14:21:03;30;;;18.4;;
76548;SDS011;65391;52.068;4.542;2023-02-22T14:23:33;30;;;18.4;;
76548;SDS011;65391;52.068;4.542;2023-02-22T14:25:41;31.4;;;19.5;;
76548;SDS011;65391;52.068;4.542;2023-02-22T14:28:06;31.4;;;19.5;;
76548;SDS011;65391;52.068;4.542;2023-02-22T14:30:31;31.4;;;19.5;;
76548;SDS011;65391;52.068;4.542;2023-02-22T14:32:55;31.4;;;19.5;;
76548;SDS011;65391;52.068;4.542;2023-02-22T14:35:20;31.9;;;19.5;;